Time;durP1;ratioP1;P1;durP2;ratioP2;P2;SDS_P1;SDS_P2;PMS_P1;PMS_P2;Temp;Humidity;BMP_temperature;BMP_pressure;BME280_temperature;BME280_humidity;BME280_pressure;Samples;Min_cycle;Max_cycle;Signal;HPM_P1;HPM_P2
2022/03/22 00:02:17;;;;;;;35.97;20.88;;;;;;;7.63;84.78;102944.91;5071900;28;20025;-71
2022/03/22 00:04:42;;;;;;;34.70;21.10;;;;;;;7.61;84.94;102946.84;5072096;28;20043;-71
2022/03/22 00:07:08;;;;;;;34.17;21.98;;;;;;;7.61;85.22;102947.69;5070339;28;20032;-71
2022/03/22 00:09:34;;;;;;;36.10;23.27;;;;;;;7.57;85.12;102954.22;5071880;28;20051;-71
2022/03/22 00:12:00;;;;;;;37.20;22.63;;;;;;;7.51;85.13;102952.06;5072007;28;20039;-71
2022/03/22 00:14:26;;;;;;;36.10;21.42;;;;;;;7.40;85.18;102950.28;5071875;28;20032;-71
2022/03/22 00:16:53;;;;;;;35.42;17.58;;;;;;;7.30;85.49;102951.97;5071909;28;20056;-71
2022/03/22 00:19:22;;;;;;;38.13;21.17;;;;;;;7.23;85.42;102948.13;5071684;28;20464;-71
2022/03/22 00:21:48;;;;;;;30.98;17.70;;;;;;;7.16;86.53;102952.25;5071399;28;20541;-71
2022/03/22 00:24:13;;;;;;;33.97;20.48;;;;;;;7.04;85.80;102943.44;5071362;28;20033;-71
2022/03/22 00:26:39;;;;;;;35.22;20.52;;;;;;;6.99;86.00;102949.09;5070207;28;20051;-71
2022/03/22 00:29:04;;;;;;;37.45;21.20;;;;;;;6.87;85.92;102949.25;5070899;28;20033;-71
2022/03/22 00:31:30;;;;;;;35.67;18.95;;;;;;;6.84;86.58;102954.78;5069934;28;20396;-71
2022/03/22 00:33:56;;;;;;;36.33;19.98;;;;;;;6.82;87.28;102956.72;5071651;28;20132;-71
2022/03/22 00:36:22;;;;;;;39.10;20.27;;;;;;;6.78;87.66;102958.75;5070074;28;20033;-71
2022/03/22 00:38:48;;;;;;;38.97;22.02;;;;;;;6.77;87.43;102957.06;5071676;28;20032;-71
2022/03/22 00:41:16;;;;;;;37.28;20.30;;;;;;;6.76;87.43;102961.53;5071471;28;20379;-71
2022/03/22 00:43:42;;;;;;;32.45;21.23;;;;;;;6.75;87.41;102959.84;5071647;28;20376;-71
2022/03/22 00:46:08;;;;;;;39.05;22.23;;;;;;;6.72;87.45;102960.09;5071362;28;20029;-71
2022/03/22 00:48:33;;;;;;;33.42;19.98;;;;;;;6.66;87.24;102962.38;5070021;28;20501;-71
2022/03/22 00:50:58;;;;;;;34.55;21.55;;;;;;;6.60;87.81;102955.72;5071010;28;20047;-71
2022/03/22 00:53:24;;;;;;;36.35;19.17;;;;;;;6.59;88.27;102960.19;5071221;28;20715;-71
2022/03/22 00:55:49;;;;;;;35.88;20.83;;;;;;;6.65;88.37;102963.31;5071307;28;20032;-71
2022/03/22 00:58:15;;;;;;;35.88;19.38;;;;;;;6.64;88.33;102949.22;5070950;28;20114;-71
2022/03/22 01:00:41;;;;;;;37.75;20.52;;;;;;;6.69;88.20;102959.47;5069342;28;20397;-71
2022/03/22 01:03:07;;;;;;;38.90;19.77;;;;;;;6.68;88.37;102963.06;5070712;28;20472;-71
2022/03/22 01:05:34;;;;;;;33.33;19.48;;;;;;;6.69;87.87;102970.94;5071004;28;20024;-71
2022/03/22 01:08:08;;;;;;;37.67;20.73;;;;;;;6.63;88.18;102962.59;5070861;28;20028;-71
2022/03/22 01:10:35;;;;;;;35.70;19.90;;;;;;;6.64;88.08;102961.66;5070903;28;20487;-71
2022/03/22 01:13:02;;;;;;;37.35;20.17;;;;;;;6.62;88.07;102964.41;5070961;28;20493;-71
2022/03/22 01:15:32;;;;;;;31.08;18.05;;;;;;;6.62;88.25;102968.88;5070913;28;20480;-71
2022/03/22 01:17:59;;;;;;;35.65;19.25;;;;;;;6.62;88.28;102968.88;5070727;28;20440;-71
2022/03/22 01:20:28;;;;;;;37.00;20.20;;;;;;;6.63;88.42;102970.53;5070821;28;20035;-71
2022/03/22 01:22:54;;;;;;;33.42;19.35;;;;;;;6.63;88.21;102965.25;5069423;28;20025;-71
2022/03/22 01:25:23;;;;;;;34.65;19.45;;;;;;;6.63;88.15;102963.47;5070337;28;20025;-71
2022/03/22 01:27:50;;;;;;;33.28;18.85;;;;;;;6.64;88.33;102962.47;5070408;28;20426;-71
2022/03/22 01:30:19;;;;;;;33.65;18.85;;;;;;;6.69;88.02;102967.44;5070266;28;20050;-71
2022/03/22 01:32:45;;;;;;;34.10;18.25;;;;;;;6.69;88.12;102962.97;5070493;28;20032;-71
2022/03/22 01:35:11;;;;;;;36.88;18.38;;;;;;;6.72;88.15;102967.19;5070484;28;20028;-71
2022/03/22 01:37:38;;;;;;;34.30;17.70;;;;;;;6.68;86.82;102971.03;5070668;28;20123;-71
2022/03/22 01:40:05;;;;;;;34.42;18.15;;;;;;;6.60;87.85;102963.66;5070279;28;20383;-71
2022/03/22 01:42:31;;;;;;;34.17;20.35;;;;;;;6.61;87.80;102960.06;5068620;28;21008;-71
2022/03/22 01:44:56;;;;;;;36.33;20.60;;;;;;;6.64;87.91;102957.19;5070188;28;20032;-71
2022/03/22 01:47:25;;;;;;;35.85;18.30;;;;;;;6.68;87.74;102965.72;5070218;28;20060;-71
2022/03/22 01:49:51;;;;;;;34.25;17.48;;;;;;;6.64;87.70;102962.47;5069840;28;20028;-71
2022/03/22 01:52:21;;;;;;;31.25;18.67;;;;;;;6.59;87.56;102967.28;5070134;28;20494;-71
2022/03/22 01:54:50;;;;;;;36.00;18.90;;;;;;;6.46;87.26;102956.78;5070180;28;20111;-71
2022/03/22 01:57:17;;;;;;;29.55;17.98;;;;;;;6.48;87.97;102962.81;5069840;28;20468;-71
2022/03/22 01:59:43;;;;;;;29.02;17.08;;;;;;;6.49;87.88;102959.19;5069797;28;20542;-71
2022/03/22 02:07:41;;;;;;;33.33;15.98;;;;;;;6.60;87.07;102961.03;5070123;28;20062;-71
2022/03/22 02:10:07;;;;;;;32.72;16.88;;;;;;;6.53;86.21;102955.38;5069601;28;20037;-71
2022/03/22 02:12:32;;;;;;;30.15;15.55;;;;;;;6.45;86.26;102962.22;5069485;28;20132;-71
2022/03/22 02:14:58;;;;;;;32.47;17.25;;;;;;;6.35;86.70;102959.41;5069225;28;20226;-71
2022/03/22 02:17:23;;;;;;;33.83;16.55;;;;;;;6.29;86.93;102954.59;5069713;28;20082;-71
2022/03/22 02:19:49;;;;;;;30.42;17.25;;;;;;;6.22;86.83;102953.38;5069396;28;20028;-71
2022/03/22 02:22:18;;;;;;;32.60;16.38;;;;;;;6.14;87.22;102954.78;5069732;28;20036;-71
2022/03/22 02:24:44;;;;;;;28.42;16.30;;;;;;;6.09;87.28;102959.59;5068799;28;20111;-71
2022/03/22 02:27:09;;;;;;;29.08;15.32;;;;;;;6.06;87.24;102957.16;5069337;28;20028;-71
2022/03/22 02:29:36;;;;;;;27.50;15.75;;;;;;;6.00;86.75;102948.81;5069167;28;20368;-71
2022/03/22 02:32:03;;;;;;;31.00;14.90;;;;;;;5.97;86.86;102951.69;5069427;28;20024;-71
2022/03/22 02:34:28;;;;;;;27.33;17.08;;;;;;;5.92;87.57;102950.22;5069384;28;20047;-71
2022/03/22 02:36:54;;;;;;;33.47;17.70;;;;;;;5.87;87.30;102948.88;5069529;28;20392;-71
2022/03/22 02:39:19;;;;;;;34.55;16.73;;;;;;;5.87;87.69;102954.19;5068195;28;20063;-71
2022/03/22 02:41:51;;;;;;;30.95;16.63;;;;;;;5.86;88.16;102949.81;5069415;28;20367;-71
2022/03/22 02:44:16;;;;;;;31.27;16.65;;;;;;;5.77;88.15;102934.63;5069283;28;20025;-71
2022/03/22 02:46:42;;;;;;;30.83;17.40;;;;;;;5.83;87.62;102955.34;5068132;28;20032;-71
2022/03/22 02:49:08;;;;;;;29.55;16.38;;;;;;;5.84;87.29;102959.69;5069177;28;20043;-71
2022/03/22 02:51:33;;;;;;;30.48;15.60;;;;;;;5.78;87.41;102947.75;5069025;28;20090;-71
2022/03/22 02:53:58;;;;;;;26.85;14.82;;;;;;;5.82;88.01;102951.03;5068265;28;20020;-71
2022/03/22 02:56:24;;;;;;;31.95;17.60;;;;;;;5.85;87.87;102958.75;5069197;28;20028;-71
2022/03/22 02:58:50;;;;;;;33.53;15.73;;;;;;;5.81;88.25;102950.16;5069036;28;20052;-71
2022/03/22 03:01:16;;;;;;;28.05;15.68;;;;;;;5.86;88.28;102957.75;5069160;28;20061;-71
2022/03/22 03:03:42;;;;;;;27.65;16.52;;;;;;;5.88;88.72;102961.16;5069297;28;21012;-71
2022/03/22 03:06:08;;;;;;;28.35;16.35;;;;;;;5.87;88.15;102955.03;5069064;28;20037;-71
2022/03/22 03:08:33;;;;;;;31.10;16.55;;;;;;;5.84;87.85;102959.69;5069237;28;20519;-71
2022/03/22 03:10:59;;;;;;;28.27;14.98;;;;;;;5.77;87.49;102959.31;5068930;28;20498;-71
2022/03/22 03:13:24;;;;;;;29.52;16.45;;;;;;;5.70;88.23;102963.34;5069148;28;20044;-71
2022/03/22 03:15:53;;;;;;;28.10;17.33;;;;;;;5.59;88.11;102960.66;5069138;28;20028;-71
2022/03/22 03:18:19;;;;;;;33.05;20.25;;;;;;;5.59;87.90;102966.78;5069139;28;20033;-71
2022/03/22 03:20:44;;;;;;;30.73;16.50;;;;;;;5.58;87.80;102964.22;5068978;28;20035;-71
2022/03/22 03:23:10;;;;;;;28.10;16.40;;;;;;;5.53;88.07;102964.59;5068963;28;20054;-71
2022/03/22 03:25:36;;;;;;;29.05;17.08;;;;;;;5.46;88.20;102958.88;5067629;28;20036;-71
2022/03/22 03:28:02;;;;;;;30.52;16.95;;;;;;;5.45;88.85;102962.50;5068932;28;20033;-71
2022/03/22 03:30:27;;;;;;;29.98;16.05;;;;;;;5.46;88.91;102965.97;5068786;28;20032;-71
2022/03/22 03:32:53;;;;;;;35.13;16.55;;;;;;;5.46;89.23;102974.75;5067560;28;20044;-71
2022/03/22 03:35:18;;;;;;;33.58;18.33;;;;;;;5.34;89.08;102964.22;5068546;28;20032;-71
2022/03/22 03:37:45;;;;;;;32.38;17.38;;;;;;;5.43;89.21;102967.06;5068833;28;20112;-71
2022/03/22 03:40:11;;;;;;;33.53;17.50;;;;;;;5.51;89.90;102976.25;5068998;28;20035;-71
2022/03/22 03:42:42;;;;;;;29.17;16.15;;;;;;;5.53;89.57;102974.31;5068947;28;20032;-71
2022/03/22 03:47:57;;;;;;;28.02;15.85;;;;;;;5.42;89.00;102972.44;5069022;28;20055;-71
2022/03/22 03:50:23;;;;;;;32.75;17.30;;;;;;;5.42;88.95;102972.44;5068599;28;20030;-71
2022/03/22 03:52:49;;;;;;;26.95;14.95;;;;;;;5.34;89.52;102980.09;5068731;28;20035;-71
2022/03/22 03:55:15;;;;;;;29.15;16.90;;;;;;;5.33;90.10;102983.69;5068658;28;20048;-71
2022/03/22 03:57:40;;;;;;;28.65;16.38;;;;;;;5.33;89.65;102987.19;5067326;28;20033;-71
2022/03/22 04:00:09;;;;;;;28.25;16.48;;;;;;;5.32;89.47;102990.78;5067184;28;20134;-71
2022/03/22 04:02:35;;;;;;;31.02;16.02;;;;;;;5.27;89.17;102988.47;5068674;28;20074;-71
2022/03/22 04:05:00;;;;;;;32.15;17.52;;;;;;;5.20;89.79;102986.38;5071212;28;20588;-71
2022/03/22 04:07:27;;;;;;;34.58;18.95;;;;;;;5.26;90.12;102988.56;5072178;28;20036;-71
2022/03/22 04:09:54;;;;;;;32.50;17.00;;;;;;;5.26;90.23;102994.69;5072053;28;20582;-71
2022/03/22 04:12:20;;;;;;;29.02;15.73;;;;;;;5.28;90.29;102992.78;5072149;28;20546;-71
2022/03/22 04:14:51;;;;;;;32.97;17.00;;;;;;;5.32;90.13;102993.44;5072101;28;20123;-71
2022/03/22 04:17:17;;;;;;;28.42;15.23;;;;;;;5.31;89.79;102989.09;5072020;28;20107;-71
2022/03/22 04:19:42;;;;;;;27.13;15.75;;;;;;;5.28;89.91;102992.78;5071949;28;20432;-71
2022/03/22 04:22:08;;;;;;;25.45;14.95;;;;;;;5.23;89.69;102984.34;5072042;28;20031;-71
2022/03/22 04:24:34;;;;;;;27.90;16.98;;;;;;;5.21;88.89;102996.84;5070548;28;20515;-71
2022/03/22 04:32:42;;;;;;;30.02;16.70;;;;;;;4.96;89.63;102987.13;5072026;28;20537;-71
2022/03/22 04:35:13;;;;;;;28.83;17.90;;;;;;;4.87;88.99;102990.41;5071723;28;20037;-71
2022/03/22 04:37:39;;;;;;;30.40;17.83;;;;;;;4.75;89.21;102981.53;5071290;28;20032;-71
2022/03/22 04:40:05;;;;;;;29.25;16.70;;;;;;;4.76;89.42;102993.78;5071632;28;20119;-71
2022/03/22 04:42:31;;;;;;;29.20;16.55;;;;;;;4.72;89.87;102986.19;5070040;28;20040;-71
2022/03/22 04:44:56;;;;;;;30.95;16.77;;;;;;;4.71;90.12;102992.41;5071420;28;20105;-71
2022/03/22 04:47:22;;;;;;;29.05;17.58;;;;;;;4.69;90.30;102989.91;5071413;28;20028;-71
2022/03/22 04:49:47;;;;;;;29.42;15.27;;;;;;;4.69;90.63;102991.69;5071248;28;20059;-71
2022/03/22 04:57:48;;;;;;;32.25;16.80;;;;;;;4.65;90.22;102995.50;5062530;28;20102;-71
2022/03/22 05:00:14;;;;;;;28.50;16.83;;;;;;;4.66;90.40;103003.31;5071025;28;20487;-71
2022/03/22 05:02:39;;;;;;;29.38;14.75;;;;;;;4.65;90.94;103008.72;5071234;28;20105;-71
2022/03/22 05:05:05;;;;;;;34.67;18.17;;;;;;;4.57;90.74;102996.00;5070978;28;20040;-71
2022/03/22 05:07:30;;;;;;;32.65;17.83;;;;;;;4.63;91.25;103011.44;5071068;28;20036;-71
2022/03/22 05:09:56;;;;;;;29.67;15.93;;;;;;;4.60;91.09;103004.56;5069668;28;20032;-71
2022/03/22 05:12:21;;;;;;;29.58;16.70;;;;;;;4.58;90.29;103013.56;5070459;28;20052;-71
2022/03/22 05:14:50;;;;;;;32.47;15.48;;;;;;;4.54;90.04;103014.72;5070388;28;20107;-71
2022/03/22 05:17:21;;;;;;;28.13;15.32;;;;;;;4.49;90.06;103022.13;5070183;28;20111;-71
2022/03/22 05:19:49;;;;;;;28.75;15.68;;;;;;;4.43;90.18;103023.38;5070811;28;20024;-71
2022/03/22 05:22:14;;;;;;;27.33;15.20;;;;;;;4.43;90.86;103026.03;5070942;28;20471;-71
2022/03/22 05:24:39;;;;;;;26.60;15.90;;;;;;;4.42;91.04;103021.66;5070642;28;20048;-71
2022/03/22 05:27:06;;;;;;;30.63;15.27;;;;;;;4.38;90.90;103020.19;5070603;28;20025;-71
2022/03/22 05:29:32;;;;;;;28.90;15.65;;;;;;;4.39;91.15;103019.22;5070152;28;20052;-70
2022/03/22 05:31:57;;;;;;;32.53;16.35;;;;;;;4.38;91.23;103028.13;5070235;28;20474;-71
2022/03/22 05:34:23;;;;;;;31.02;16.98;;;;;;;4.37;91.02;103032.53;5070487;28;20127;-71
2022/03/22 05:36:49;;;;;;;31.17;16.17;;;;;;;4.35;91.57;103037.09;5070309;28;20036;-71
2022/03/22 05:39:14;;;;;;;34.40;16.20;;;;;;;4.36;91.84;103024.72;5070347;28;20086;-71
2022/03/22 05:41:40;;;;;;;28.90;15.82;;;;;;;4.43;91.94;103030.44;5070343;28;20365;-71
2022/03/22 05:44:05;;;;;;;32.67;15.77;;;;;;;4.45;91.44;103037.31;5070207;28;20037;-71
2022/03/22 05:46:31;;;;;;;27.15;14.38;;;;;;;4.45;91.53;103037.31;5070112;28;20044;-71
2022/03/22 05:48:57;;;;;;;35.78;16.00;;;;;;;4.39;90.76;103033.28;5069962;28;20476;-71
2022/03/22 05:51:23;;;;;;;30.75;17.58;;;;;;;4.38;90.80;103039.53;5069644;28;20488;-71
2022/03/22 05:53:49;;;;;;;28.15;14.93;;;;;;;4.33;91.38;103030.22;5070100;28;20062;-71
2022/03/22 05:56:14;;;;;;;30.33;18.15;;;;;;;4.39;91.64;103041.22;5069868;28;20025;-71
2022/03/22 05:58:40;;;;;;;29.55;17.25;;;;;;;4.35;91.57;103030.97;5069829;28;20028;-71
2022/03/22 06:01:06;;;;;;;29.45;16.30;;;;;;;4.46;91.58;103039.03;5069684;28;20137;-71
2022/03/22 06:03:35;;;;;;;28.33;15.38;;;;;;;4.53;91.34;103039.44;5069752;28;20408;-71
2022/03/22 06:06:01;;;;;;;30.67;15.57;;;;;;;4.53;91.24;103042.94;5069733;28;20111;-71
2022/03/22 06:08:29;;;;;;;29.67;16.77;;;;;;;4.55;91.54;103033.09;5069720;28;20028;-71
2022/03/22 06:10:55;;;;;;;31.80;16.30;;;;;;;4.60;91.11;103046.00;5069753;28;20024;-71
2022/03/22 06:13:20;;;;;;;29.50;15.35;;;;;;;4.58;90.96;103040.84;5069781;28;21137;-71
2022/03/22 06:15:47;;;;;;;29.75;15.95;;;;;;;4.67;91.53;103047.31;5068428;28;20511;-71
2022/03/22 06:18:12;;;;;;;35.97;17.60;;;;;;;4.77;91.10;103050.19;5069318;28;20037;-71
2022/03/22 06:20:43;;;;;;;29.63;14.95;;;;;;;4.97;91.09;103047.00;5069526;28;20098;-71
2022/03/22 06:23:10;;;;;;;34.97;17.85;;;;;;;5.10;90.65;103054.09;5067995;28;20029;-71
2022/03/22 06:25:37;;;;;;;33.78;18.45;;;;;;;5.18;90.07;103054.41;5069052;28;20790;-71
2022/03/22 06:28:05;;;;;;;31.13;16.80;;;;;;;5.20;89.59;103052.50;5067654;28;20380;-71
2022/03/22 06:30:31;;;;;;;35.00;17.77;;;;;;;5.20;89.39;103042.75;5069019;28;20074;-71
2022/03/22 06:33:07;;;;;;;29.50;17.05;;;;;;;5.28;88.90;103051.00;5067681;28;20430;-71
2022/03/22 06:35:34;;;;;;;32.38;16.90;;;;;;;5.35;88.92;103059.38;5069261;28;20501;-71
2022/03/22 06:38:01;;;;;;;29.08;16.83;;;;;;;5.55;88.55;103057.94;5069392;28;20048;-71
2022/03/22 06:40:29;;;;;;;31.00;16.45;;;;;;;5.72;88.58;103060.25;5069289;28;20027;-71
2022/03/22 06:42:58;;;;;;;27.38;16.85;;;;;;;5.85;88.00;103064.66;5069318;28;20038;-71
2022/03/22 06:45:24;;;;;;;32.60;17.40;;;;;;;5.98;87.75;103062.84;5069114;28;20111;-71
2022/03/22 06:47:50;;;;;;;32.13;16.83;;;;;;;6.07;87.50;103054.22;5069248;28;20059;-71
2022/03/22 06:50:18;;;;;;;29.17;16.45;;;;;;;6.23;87.38;103063.69;5068916;28;20033;-71
2022/03/22 06:52:44;;;;;;;31.80;18.48;;;;;;;6.32;86.85;103069.16;5069182;28;20048;-71
2022/03/22 06:55:11;;;;;;;33.85;19.02;;;;;;;6.44;86.82;103077.97;5069166;28;20020;-71
2022/03/22 06:57:37;;;;;;;35.60;19.50;;;;;;;6.53;85.78;103076.47;5069233;28;20037;-71
2022/03/22 07:00:08;;;;;;;32.72;18.73;;;;;;;6.62;85.97;103069.63;5069193;28;20110;-71
2022/03/22 07:02:35;;;;;;;32.95;18.98;;;;;;;6.71;84.63;103053.03;5069653;28;20028;-71
2022/03/22 07:05:04;;;;;;;32.13;16.10;;;;;;;6.96;83.55;103070.53;5068999;28;20387;-71
2022/03/22 07:07:29;;;;;;;37.78;19.65;;;;;;;7.10;84.13;103065.03;5069397;28;20438;-71
2022/03/22 07:09:54;;;;;;;32.75;19.58;;;;;;;7.27;82.96;103070.81;5068885;28;20028;-71
2022/03/22 07:12:20;;;;;;;36.95;19.00;;;;;;;7.42;82.04;103070.47;5068665;28;20048;-71
2022/03/22 07:14:45;;;;;;;35.67;19.35;;;;;;;7.60;80.97;103075.28;5068660;28;20842;-71
2022/03/22 07:17:11;;;;;;;34.70;18.50;;;;;;;7.83;80.42;103074.31;5068933;28;20650;-71
2022/03/22 07:19:37;;;;;;;31.13;17.60;;;;;;;7.98;79.70;103074.00;5068948;28;20036;-71
2022/03/22 07:22:03;;;;;;;35.00;20.05;;;;;;;8.11;79.40;103072.88;5068938;28;20031;-71
2022/03/22 07:24:29;;;;;;;39.50;20.50;;;;;;;8.18;77.65;103075.06;5068922;28;20032;-71
2022/03/22 07:26:55;;;;;;;33.65;19.33;;;;;;;8.25;76.73;103076.22;5068720;28;20429;-71
2022/03/22 07:29:20;;;;;;;35.60;19.67;;;;;;;8.33;76.91;103079.06;5068808;28;20119;-71
2022/03/22 07:31:46;;;;;;;40.00;20.05;;;;;;;8.44;76.32;103089.72;5068496;28;20052;-71
2022/03/22 07:34:15;;;;;;;33.60;18.55;;;;;;;8.55;76.62;103079.03;5064278;28;20021;-71
2022/03/22 07:36:41;;;;;;;31.70;17.27;;;;;;;8.69;75.86;103087.66;5064229;28;20028;-71
2022/03/22 07:39:08;;;;;;;30.58;17.35;;;;;;;8.83;75.99;103079.38;5064594;28;20399;-72
2022/03/22 07:41:34;;;;;;;36.80;18.88;;;;;;;8.97;75.81;103080.84;5069617;28;20043;-72
2022/03/22 07:44:01;;;;;;;31.75;18.50;;;;;;;9.09;75.61;103086.94;5072420;28;20111;-72
2022/03/22 07:46:27;;;;;;;34.53;19.45;;;;;;;9.34;74.04;103080.34;5072572;28;20040;-72
2022/03/22 07:48:53;;;;;;;36.13;21.70;;;;;;;9.56;75.15;103087.28;5072533;28;20028;-72
2022/03/22 07:54:03;;;;;;;33.33;20.27;;;;;;;10.05;70.39;103081.09;5072826;28;20047;-72
2022/03/22 07:56:32;;;;;;;33.72;20.70;;;;;;;10.19;70.44;103084.34;5072407;28;20024;-72
2022/03/22 07:58:58;;;;;;;35.05;21.13;;;;;;;10.65;69.89;103081.00;5072252;28;20464;-72
2022/03/22 08:01:24;;;;;;;36.13;20.27;;;;;;;10.92;67.47;103082.91;5072042;28;20040;-72
2022/03/22 08:03:51;;;;;;;32.25;19.60;;;;;;;11.06;67.81;103087.00;5072291;28;20028;-72
2022/03/22 08:06:16;;;;;;;39.97;19.77;;;;;;;11.38;66.99;103073.22;5072165;28;20044;-72
2022/03/22 08:08:44;;;;;;;35.92;19.83;;;;;;;11.71;64.31;103089.69;5072278;28;20031;-72
2022/03/22 08:11:10;;;;;;;35.25;19.80;;;;;;;11.83;66.11;103095.66;5071929;28;20111;-72
2022/03/22 08:13:37;;;;;;;32.35;20.45;;;;;;;12.05;64.48;103091.75;5070727;28;20391;-72
2022/03/22 08:16:06;;;;;;;38.88;22.60;;;;;;;12.10;65.97;103085.94;5071885;28;20525;-72
2022/03/22 08:18:33;;;;;;;34.08;20.35;;;;;;;12.17;65.22;103090.53;5071881;28;20538;-72
2022/03/22 08:20:58;;;;;;;32.20;20.67;;;;;;;12.15;63.29;103081.81;5071781;28;20028;-73
2022/03/22 08:23:24;;;;;;;34.65;20.40;;;;;;;12.12;63.57;103086.63;5072128;28;20162;-72
2022/03/22 08:25:51;;;;;;;34.53;21.17;;;;;;;12.05;63.89;103087.25;5071715;28;20043;-72
2022/03/22 08:28:17;;;;;;;36.92;20.02;;;;;;;12.13;62.97;103101.69;5071587;28;20079;-72
2022/03/22 08:30:43;;;;;;;36.30;20.13;;;;;;;12.23;63.79;103095.25;5071741;28;20711;-72
2022/03/22 08:33:10;;;;;;;33.72;20.02;;;;;;;12.35;63.33;103089.72;5071660;28;20039;-72
2022/03/22 08:35:41;;;;;;;32.00;20.05;;;;;;;12.37;62.06;103091.25;5071491;28;20476;-72
2022/03/22 08:38:08;;;;;;;36.75;20.65;;;;;;;12.33;61.58;103097.03;5071570;28;20033;-72
2022/03/22 08:40:33;;;;;;;35.70;20.88;;;;;;;12.36;65.03;103100.25;5071390;28;20032;-72
2022/03/22 08:43:00;;;;;;;33.33;19.13;;;;;;;12.42;63.40;103091.63;5071593;28;20407;-72
2022/03/22 08:45:27;;;;;;;36.65;20.58;;;;;;;12.45;61.83;103093.16;5071953;28;20032;-72
2022/03/22 08:47:54;;;;;;;35.67;19.05;;;;;;;12.53;62.64;103103.09;5071236;28;20024;-72
2022/03/22 08:50:22;;;;;;;40.05;20.80;;;;;;;12.61;60.32;103101.31;5069943;28;20455;-72
2022/03/22 08:52:49;;;;;;;35.25;19.40;;;;;;;12.66;60.93;103088.31;5071346;28;20036;-72
2022/03/22 08:55:18;;;;;;;35.80;19.67;;;;;;;12.77;59.33;103102.44;5071159;28;20093;-72
2022/03/22 08:57:46;;;;;;;30.33;17.98;;;;;;;12.80;58.79;103097.59;5070987;28;20020;-72
2022/03/22 09:00:13;;;;;;;38.65;21.00;;;;;;;12.86;58.84;103096.13;5070854;28;20237;-72
2022/03/22 09:02:40;;;;;;;35.53;20.83;;;;;;;12.91;60.72;103097.34;5070768;28;20028;-72
2022/03/22 09:07:51;;;;;;;28.73;18.50;;;;;;;12.95;58.24;103087.16;5070645;28;20445;-72
2022/03/22 09:10:19;;;;;;;28.63;17.75;;;;;;;13.10;59.04;103093.63;5070581;28;20025;-72
2022/03/22 09:12:45;;;;;;;32.08;18.83;;;;;;;13.21;58.70;103094.38;5070744;28;20056;-72
2022/03/22 09:15:11;;;;;;;32.03;19.13;;;;;;;13.28;56.40;103096.28;5070664;28;20498;-72
2022/03/22 09:17:37;;;;;;;31.60;19.90;;;;;;;13.38;57.11;103090.78;5070723;28;20033;-72
2022/03/22 09:20:04;;;;;;;34.75;20.35;;;;;;;13.50;58.04;103092.19;5065323;28;20077;-72
2022/03/22 09:22:29;;;;;;;29.70;18.83;;;;;;;13.59;56.11;103082.34;5066446;28;20032;-72
2022/03/22 09:24:55;;;;;;;32.50;19.33;;;;;;;13.69;56.47;103085.72;5069299;28;20017;-72
2022/03/22 09:27:20;;;;;;;36.72;18.17;;;;;;;13.76;54.50;103083.25;5070533;28;20423;-73
2022/03/22 09:29:46;;;;;;;30.23;18.00;;;;;;;13.81;56.34;103080.91;5070481;28;20471;-72
2022/03/22 09:32:12;;;;;;;30.85;17.35;;;;;;;13.91;54.99;103081.63;5070514;28;20115;-72
2022/03/22 09:34:37;;;;;;;31.00;18.08;;;;;;;14.06;54.25;103086.34;5070414;28;20039;-72
2022/03/22 09:37:03;;;;;;;32.00;18.50;;;;;;;14.15;54.97;103080.81;5070356;28;20033;-72
2022/03/22 09:39:28;;;;;;;31.58;18.90;;;;;;;14.27;54.78;103086.69;5070752;28;20035;-72
2022/03/22 09:41:56;;;;;;;31.55;18.67;;;;;;;14.34;53.46;103090.41;5070360;28;20107;-72
2022/03/22 09:44:21;;;;;;;30.38;18.92;;;;;;;14.38;52.93;103083.72;5070428;28;20040;-72
2022/03/22 09:46:50;;;;;;;31.45;17.98;;;;;;;14.48;52.34;103088.88;5070071;28;20025;-72
2022/03/22 09:49:16;;;;;;;33.70;18.50;;;;;;;14.52;53.28;103079.50;5070174;28;20044;-72
2022/03/22 09:51:45;;;;;;;34.05;19.52;;;;;;;14.66;50.85;103088.75;5070096;28;20032;-72
2022/03/22 09:54:12;;;;;;;32.53;20.23;;;;;;;14.72;53.38;103079.19;5070042;28;20025;-72
2022/03/22 09:56:40;;;;;;;34.13;18.50;;;;;;;14.81;50.92;103079.00;5069988;28;20170;-72
2022/03/22 09:59:06;;;;;;;33.88;19.52;;;;;;;14.85;50.36;103074.97;5070071;28;20051;-73
2022/03/22 10:01:33;;;;;;;29.17;17.25;;;;;;;14.91;50.41;103068.09;5069348;28;20133;-72
2022/03/22 10:04:02;;;;;;;30.38;18.08;;;;;;;15.01;51.22;103078.63;5069804;28;20056;-72
2022/03/22 10:06:29;;;;;;;28.35;17.40;;;;;;;15.11;52.01;103073.91;5069225;28;20039;-72
2022/03/22 10:08:55;;;;;;;36.03;19.08;;;;;;;15.19;49.16;103068.50;5069399;28;20549;-72
2022/03/22 10:11:21;;;;;;;35.45;18.75;;;;;;;15.27;50.17;103067.63;5069527;28;20363;-72
2022/03/22 10:13:54;;;;;;;34.70;18.25;;;;;;;15.40;51.06;103070.59;5068411;28;20030;-72
2022/03/22 10:16:20;;;;;;;30.63;18.38;;;;;;;15.40;48.35;103056.34;5069649;28;20101;-75
2022/03/22 10:18:45;;;;;;;28.92;17.20;;;;;;;15.52;47.82;103063.84;5068314;28;20024;-72
2022/03/22 10:21:11;;;;;;;31.58;16.58;;;;;;;15.61;48.53;103064.63;5069561;28;20025;-72
2022/03/22 10:23:54;;;;;;;31.48;17.60;;;;;;;15.66;51.45;103062.25;5069669;28;20031;-72
2022/03/22 10:26:21;;;;;;;29.58;17.40;;;;;;;15.72;50.24;103056.22;5069324;28;20067;-72
2022/03/22 10:28:50;;;;;;;30.15;18.27;;;;;;;15.78;48.45;103055.50;5069185;28;20140;-72
2022/03/22 10:31:16;;;;;;;27.73;17.63;;;;;;;15.83;46.35;103056.84;5069239;28;20036;-72
2022/03/22 10:33:53;;;;;;;31.50;18.45;;;;;;;15.82;48.12;103052.44;5067909;28;20039;-72
2022/03/22 10:36:21;;;;;;;29.00;18.60;;;;;;;15.86;44.80;103053.78;5069189;28;20120;-72
2022/03/22 10:38:59;;;;;;;29.90;16.60;;;;;;;15.92;47.08;103055.75;5069386;28;20056;-72
2022/03/22 10:41:30;;;;;;;31.15;15.93;;;;;;;16.05;45.96;103050.63;5069568;28;20456;-72
2022/03/22 10:44:09;;;;;;;35.40;18.17;;;;;;;16.17;45.81;103038.41;5069258;28;20025;-72
2022/03/22 10:46:38;;;;;;;34.63;17.35;;;;;;;16.30;44.10;103043.19;5069273;28;20024;-72
2022/03/22 10:49:18;;;;;;;27.85;15.10;;;;;;;16.41;49.18;103045.47;5068976;28;20044;-72
2022/03/22 10:51:46;;;;;;;33.72;17.10;;;;;;;16.49;43.78;103035.63;5069196;28;20029;-72
2022/03/22 10:54:16;;;;;;;31.88;19.77;;;;;;;16.51;46.34;103041.69;5069148;28;20024;-72
2022/03/22 10:56:53;;;;;;;31.33;15.75;;;;;;;16.63;45.21;103048.28;5068926;28;20043;-72
2022/03/22 10:59:21;;;;;;;27.30;16.27;;;;;;;16.70;45.13;103037.63;5068476;28;20043;-72
2022/03/22 11:01:48;;;;;;;32.10;18.90;;;;;;;16.79;45.97;103041.94;5068682;28;20053;-72
2022/03/22 11:04:15;;;;;;;30.38;16.92;;;;;;;16.88;47.53;103045.41;5069046;28;20106;-72
2022/03/22 11:06:41;;;;;;;27.52;15.98;;;;;;;16.90;43.44;103032.53;5068899;28;20499;-72
2022/03/22 11:09:07;;;;;;;29.23;17.00;;;;;;;16.96;42.30;103040.75;5068992;28;20103;-72
2022/03/22 11:11:35;;;;;;;26.92;16.20;;;;;;;17.01;42.53;103042.88;5069018;28;20036;-72
2022/03/22 11:14:01;;;;;;;32.15;17.45;;;;;;;17.08;43.19;103043.78;5070042;28;20067;-72
2022/03/22 11:16:28;;;;;;;29.90;16.00;;;;;;;17.16;45.48;103030.25;5073251;28;20464;-72
2022/03/22 11:18:56;;;;;;;29.75;16.63;;;;;;;17.21;44.32;103022.44;5073084;28;20086;-72
2022/03/22 11:21:22;;;;;;;29.45;17.15;;;;;;;17.31;41.68;103030.22;5072750;28;20119;-72
2022/03/22 11:23:47;;;;;;;30.67;17.08;;;;;;;17.31;43.07;103025.66;5072998;28;20470;-72
2022/03/22 11:26:18;;;;;;;30.67;17.13;;;;;;;17.36;43.37;103022.41;5072510;28;20040;-72
2022/03/22 11:28:45;;;;;;;30.00;17.73;;;;;;;17.46;43.13;103022.94;5072926;28;20115;-72
2022/03/22 11:31:14;;;;;;;29.30;18.30;;;;;;;17.53;42.41;103006.84;5072519;28;20032;-72
2022/03/22 11:36:28;;;;;;;29.85;15.43;;;;;;;17.70;41.72;103018.22;5072670;28;20047;-72
2022/03/22 11:38:58;;;;;;;36.65;17.73;;;;;;;17.74;40.32;103014.13;5071809;28;20400;-72
2022/03/22 11:44:42;;;;;;;26.13;14.50;;;;;;;17.70;42.31;103018.22;5072635;28;20114;-72